createdAt,value
2023-05-05T00:00:14.219Z,248.85
2023-05-05T00:01:14.212Z,249.51
2023-05-05T00:02:14.222Z,249.56
2023-05-05T00:03:14.378Z,249.17
2023-05-05T00:04:14.311Z,248.38
2023-05-05T00:05:14.284Z,247.97
2023-05-05T00:06:14.276Z,249.27
2023-05-05T00:07:14.326Z,249.51
2023-05-05T00:08:14.414Z,249.67
2023-05-05T00:09:14.323Z,249.43
2023-05-05T00:10:14.325Z,249.11
2023-05-05T00:11:14.414Z,249.13
2023-05-05T00:12:14.376Z,249.13
2023-05-05T00:13:14.490Z,248.91
2023-05-05T00:14:14.451Z,249.25
2023-05-05T00:15:14.458Z,249.61
2023-05-05T00:16:14.470Z,248.91
2023-05-05T00:17:14.537Z,249.06
2023-05-05T00:18:14.513Z,249.09
2023-05-05T00:19:14.486Z,249.50
2023-05-05T00:20:14.490Z,249.94
2023-05-05T00:21:14.558Z,249.21
2023-05-05T00:22:14.575Z,249.21
2023-05-05T00:23:14.569Z,249.49
2023-05-05T00:24:14.598Z,248.83
2023-05-05T00:25:14.586Z,248.63
2023-05-05T00:26:14.622Z,248.80
2023-05-05T00:27:14.640Z,249.86
2023-05-05T00:28:14.621Z,249.63
2023-05-05T00:29:14.653Z,248.61
2023-05-05T00:30:14.727Z,249.55
2023-05-05T00:31:14.755Z,249.40
2023-05-05T00:32:14.781Z,249.15
2023-05-05T00:33:14.802Z,248.99
2023-05-05T00:34:14.802Z,249.62
2023-05-05T00:35:14.806Z,248.87
2023-05-05T00:36:14.823Z,249.01
2023-05-05T00:37:14.920Z,248.95
2023-05-05T00:38:14.870Z,249.60
2023-05-05T00:39:14.926Z,249.93
2023-05-05T00:40:14.953Z,248.35
2023-05-05T00:41:14.959Z,248.71
2023-05-05T00:42:15.012Z,248.56
2023-05-05T00:43:15.013Z,248.86
2023-05-05T00:44:15.012Z,248.64
2023-05-05T00:45:15.018Z,248.76
2023-05-05T00:46:15.147Z,248.78
2023-05-05T00:47:15.106Z,249.13
2023-05-05T00:48:15.156Z,250.00
2023-05-05T00:49:15.231Z,249.43
2023-05-05T00:50:15.146Z,248.97
2023-05-05T00:51:15.230Z,249.67
2023-05-05T00:52:15.168Z,249.13
2023-05-05T00:53:15.201Z,248.96
2023-05-05T00:54:15.302Z,248.53
2023-05-05T00:55:15.400Z,249.51
2023-05-05T00:56:15.227Z,249.40
2023-05-05T00:57:15.323Z,248.97
2023-05-05T00:58:15.273Z,249.22
2023-05-05T00:59:15.345Z,247.99
2023-05-05T01:00:15.371Z,248.50
2023-05-05T01:01:15.481Z,248.93
2023-05-05T01:02:15.398Z,248.93
2023-05-05T01:03:15.516Z,249.04
2023-05-05T01:04:15.436Z,248.60
2023-05-05T01:05:15.492Z,248.54
2023-05-05T01:06:15.585Z,247.89
2023-05-05T01:07:15.488Z,248.53
2023-05-05T01:08:15.544Z,248.65
2023-05-05T01:09:15.550Z,249.24
2023-05-05T01:10:19.836Z,247.75
2023-05-05T01:11:16.587Z,247.81
2023-05-05T01:12:15.576Z,248.09
2023-05-05T01:13:15.571Z,248.28
2023-05-05T01:14:15.542Z,248.81
2023-05-05T01:15:15.534Z,249.44
2023-05-05T01:16:15.586Z,249.78
2023-05-05T01:17:15.549Z,249.15
2023-05-05T01:18:16.381Z,249.00
2023-05-05T01:19:15.519Z,248.28
2023-05-05T01:20:15.505Z,248.59
2023-05-05T01:21:15.508Z,249.53
2023-05-05T01:22:15.512Z,248.82
2023-05-05T01:23:15.503Z,247.75
2023-05-05T01:24:15.503Z,248.90
2023-05-05T01:25:15.517Z,247.60
2023-05-05T01:26:15.456Z,248.13
2023-05-05T01:27:15.477Z,248.91
2023-05-05T01:28:15.480Z,249.18
2023-05-05T01:29:15.482Z,249.39
2023-05-05T01:30:15.562Z,248.93
2023-05-05T01:31:15.625Z,248.25
2023-05-05T01:32:15.610Z,248.93
2023-05-05T01:33:15.669Z,249.17
2023-05-05T01:34:15.627Z,248.95
2023-05-05T01:35:15.680Z,248.79
2023-05-05T01:36:15.688Z,248.85
2023-05-05T01:37:15.636Z,248.82
2023-05-05T01:38:15.753Z,249.58
2023-05-05T01:39:15.749Z,248.73
2023-05-05T01:40:15.764Z,248.21
2023-05-05T01:41:15.736Z,248.80
2023-05-05T01:42:15.826Z,248.39
2023-05-05T01:43:15.842Z,249.73
2023-05-05T01:44:15.884Z,249.46
2023-05-05T01:45:15.943Z,249.12
2023-05-05T01:46:16.092Z,249.78
2023-05-05T01:47:16.026Z,249.10
2023-05-05T01:48:16.019Z,248.65
2023-05-05T01:49:16.020Z,248.71
2023-05-05T01:50:16.104Z,248.40
2023-05-05T01:51:16.114Z,247.38
2023-05-05T01:52:16.110Z,248.55
2023-05-05T01:53:16.101Z,249.14
2023-05-05T01:54:16.164Z,248.02
2023-05-05T01:55:16.164Z,248.87
2023-05-05T01:56:16.180Z,249.12
2023-05-05T01:57:16.172Z,248.14
2023-05-05T01:58:16.169Z,248.92
2023-05-05T01:59:16.195Z,248.44
2023-05-05T02:00:16.257Z,248.25
2023-05-05T02:01:16.271Z,248.31
2023-05-05T02:02:16.273Z,249.09
2023-05-05T02:03:16.387Z,248.81
2023-05-05T02:04:16.431Z,248.26
2023-05-05T02:05:16.365Z,248.41
2023-05-05T02:06:16.338Z,248.11
2023-05-05T02:07:16.461Z,248.57
2023-05-05T02:08:16.404Z,247.96
2023-05-05T02:09:16.416Z,247.55
2023-05-05T02:10:16.420Z,248.65
2023-05-05T02:11:16.445Z,249.19
2023-05-05T02:12:16.484Z,247.46
2023-05-05T02:13:16.700Z,247.60
2023-05-05T02:14:16.508Z,248.20
2023-05-05T02:15:16.604Z,248.32
2023-05-05T02:16:16.649Z,248.51
2023-05-05T02:17:16.598Z,248.12
2023-05-05T02:18:16.586Z,248.37
2023-05-05T02:19:16.616Z,248.90
2023-05-05T02:20:16.607Z,248.19
2023-05-05T02:21:16.618Z,248.06
2023-05-05T02:22:16.714Z,248.51
2023-05-05T02:23:16.714Z,248.45
2023-05-05T02:24:16.726Z,247.88
2023-05-05T02:25:16.800Z,247.55
2023-05-05T02:26:16.836Z,248.51
2023-05-05T02:27:16.857Z,247.44
2023-05-05T02:28:16.876Z,247.38
2023-05-05T02:29:16.881Z,248.05
2023-05-05T02:30:16.940Z,247.87
2023-05-05T02:31:16.925Z,247.62
2023-05-05T02:32:17.106Z,248.11
2023-05-05T02:33:16.955Z,248.26
2023-05-05T02:34:17.005Z,248.01
2023-05-05T02:35:17.086Z,248.18
2023-05-05T02:36:17.022Z,248.85
2023-05-05T02:37:17.134Z,248.21
2023-05-05T02:38:17.217Z,247.88
2023-05-05T02:39:17.137Z,246.90
2023-05-05T02:40:17.151Z,247.65
2023-05-05T02:41:17.205Z,247.74
2023-05-05T02:42:17.155Z,246.71
2023-05-05T02:43:17.274Z,247.58
2023-05-05T02:44:17.275Z,248.26
2023-05-05T02:45:17.283Z,248.50
2023-05-05T02:46:17.338Z,247.77
2023-05-05T02:47:17.295Z,247.50
2023-05-05T02:48:17.395Z,248.71
2023-05-05T02:49:17.416Z,247.84
2023-05-05T02:50:17.332Z,248.41
2023-05-05T02:51:17.337Z,248.60
2023-05-05T02:52:17.392Z,248.12
2023-05-05T02:53:17.965Z,248.26
2023-05-05T02:54:17.430Z,247.97
2023-05-05T02:55:17.477Z,249.06
2023-05-05T02:56:17.433Z,248.46
2023-05-05T02:57:17.467Z,248.49
2023-05-05T02:58:17.498Z,249.16
2023-05-05T02:59:17.604Z,248.86
2023-05-05T03:00:17.561Z,247.92
2023-05-05T03:01:17.647Z,247.77
2023-05-05T03:02:17.931Z,248.74
2023-05-05T03:03:17.771Z,248.68
2023-05-05T03:04:17.724Z,248.13
2023-05-05T03:05:17.725Z,248.60
2023-05-05T03:06:17.759Z,247.77
2023-05-05T03:07:17.813Z,246.96
2023-05-05T03:08:17.821Z,247.54
2023-05-05T03:09:17.810Z,247.30
2023-05-05T03:10:17.792Z,248.00
2023-05-05T03:11:17.833Z,247.98
2023-05-05T03:12:17.843Z,248.03
2023-05-05T03:13:17.890Z,246.62
2023-05-05T03:14:17.922Z,247.43
2023-05-05T03:15:17.961Z,247.96
2023-05-05T03:16:18.010Z,247.85
2023-05-05T03:17:17.981Z,247.36
2023-05-05T03:18:18.028Z,247.56
2023-05-05T03:19:18.033Z,247.41
2023-05-05T03:20:18.106Z,246.69
2023-05-05T03:21:18.106Z,246.33
2023-05-05T03:22:18.109Z,248.05
2023-05-05T03:23:18.167Z,247.76
2023-05-05T03:24:18.150Z,247.77
2023-05-05T03:25:18.174Z,247.07
2023-05-05T03:26:18.190Z,248.20
2023-05-05T03:27:18.269Z,247.84
2023-05-05T03:28:18.304Z,247.62
2023-05-05T03:29:18.268Z,247.70
2023-05-05T03:30:18.305Z,248.03
2023-05-05T03:31:18.518Z,248.05
2023-05-05T03:32:18.404Z,248.27
2023-05-05T03:33:18.461Z,248.67
2023-05-05T03:34:18.438Z,248.41
2023-05-05T03:35:18.452Z,247.35
2023-05-05T03:36:18.454Z,247.92
2023-05-05T03:37:18.543Z,248.20
2023-05-05T03:38:18.535Z,248.36
2023-05-05T03:39:18.578Z,248.72
2023-05-05T03:40:18.608Z,248.29
2023-05-05T03:41:18.612Z,248.41
2023-05-05T03:42:18.679Z,247.97
2023-05-05T03:43:18.669Z,248.12
2023-05-05T03:44:18.732Z,248.82
2023-05-05T03:45:18.733Z,249.08
2023-05-05T03:46:18.790Z,247.73
2023-05-05T03:47:18.706Z,247.78
2023-05-05T03:48:18.737Z,249.15
2023-05-05T03:49:18.735Z,248.25
2023-05-05T03:50:18.774Z,248.13
2023-05-05T03:51:18.823Z,248.46
2023-05-05T03:52:18.876Z,248.88
2023-05-05T03:53:18.885Z,248.63
2023-05-05T03:54:18.892Z,248.21
2023-05-05T03:55:18.978Z,249.78
2023-05-05T03:56:18.957Z,248.14
2023-05-05T03:57:18.969Z,248.63
2023-05-05T03:58:18.971Z,248.53
2023-05-05T03:59:18.979Z,248.17
2023-05-05T04:00:19.138Z,249.72
2023-05-05T04:01:19.062Z,248.33
2023-05-05T04:02:19.182Z,248.42
2023-05-05T04:03:19.304Z,249.50
2023-05-05T04:04:19.290Z,248.36
2023-05-05T04:05:19.170Z,248.85
2023-05-05T04:06:19.181Z,247.84
2023-05-05T04:07:19.252Z,247.68
2023-05-05T04:08:19.239Z,247.24
2023-05-05T04:09:19.258Z,249.00
2023-05-05T04:10:19.309Z,249.42
2023-05-05T04:11:19.284Z,248.49
2023-05-05T04:12:19.333Z,246.32
2023-05-05T04:13:19.326Z,244.80
2023-05-05T04:14:19.968Z,242.61
2023-05-05T04:15:19.404Z,242.86
2023-05-05T04:16:19.501Z,240.38
2023-05-05T04:17:19.469Z,238.96
2023-05-05T04:18:19.532Z,237.80
2023-05-05T04:19:19.569Z,235.79
2023-05-05T04:20:19.562Z,236.50
2023-05-05T04:21:19.547Z,231.40
2023-05-05T04:22:19.604Z,231.35
2023-05-05T04:23:19.623Z,230.14
2023-05-05T04:24:20.444Z,227.44
2023-05-05T04:25:19.624Z,226.56
2023-05-05T04:26:19.674Z,224.88
2023-05-05T04:27:19.702Z,224.46
2023-05-05T04:28:21.607Z,223.71
2023-05-05T04:29:19.722Z,222.82
2023-05-05T04:30:19.717Z,221.30
2023-05-05T04:31:19.822Z,219.55
2023-05-05T04:32:19.817Z,220.03
2023-05-05T04:33:19.933Z,219.75
2023-05-05T04:34:19.793Z,219.55
2023-05-05T04:35:19.838Z,217.66
2023-05-05T04:36:19.913Z,217.56
2023-05-05T04:37:19.866Z,217.86
2023-05-05T04:38:19.952Z,217.15
2023-05-05T04:39:19.927Z,217.69
2023-05-05T04:40:19.941Z,216.46
2023-05-05T04:41:20.001Z,217.08
2023-05-05T04:42:19.989Z,217.35
2023-05-05T04:43:20.003Z,216.63
2023-05-05T04:44:20.016Z,216.92
2023-05-05T04:45:20.091Z,217.29
2023-05-05T04:46:20.142Z,217.32
2023-05-05T04:47:20.080Z,216.88
2023-05-05T04:48:20.088Z,217.98
2023-05-05T04:49:20.104Z,216.45
2023-05-05T04:50:20.121Z,217.38
2023-05-05T04:51:20.167Z,218.24
2023-05-05T04:52:20.168Z,219.59
2023-05-05T04:53:20.158Z,219.77
2023-05-05T04:54:20.951Z,221.25
2023-05-05T04:55:20.210Z,220.20
2023-05-05T04:56:20.251Z,220.53
2023-05-05T04:57:20.218Z,220.19
2023-05-05T04:58:20.319Z,221.24
2023-05-05T04:59:20.272Z,220.46
2023-05-05T05:00:20.268Z,220.02
2023-05-05T05:01:20.371Z,219.92
2023-05-05T05:02:20.314Z,220.63
2023-05-05T05:03:20.388Z,219.24
2023-05-05T05:04:20.413Z,218.08
2023-05-05T05:05:20.376Z,218.28
2023-05-05T05:06:20.422Z,218.14
2023-05-05T05:07:20.427Z,219.17
2023-05-05T05:08:20.511Z,217.38
2023-05-05T05:09:20.496Z,217.80
2023-05-05T05:10:20.520Z,218.11
2023-05-05T05:11:20.559Z,217.16
2023-05-05T05:12:20.570Z,216.96
2023-05-05T05:13:20.720Z,216.52
2023-05-05T05:14:20.624Z,217.43
2023-05-05T05:15:20.687Z,217.19
2023-05-05T05:16:20.750Z,217.16
2023-05-05T05:17:20.701Z,215.92
2023-05-05T05:18:20.710Z,217.37
2023-05-05T05:19:20.749Z,217.44
2023-05-05T05:20:20.761Z,217.04
2023-05-05T05:21:20.759Z,217.34
2023-05-05T05:22:20.805Z,216.90
2023-05-05T05:23:20.862Z,218.66
2023-05-05T05:24:20.857Z,218.43
2023-05-05T05:25:20.911Z,218.23
2023-05-05T05:26:20.927Z,217.79
2023-05-05T05:27:20.928Z,220.19
2023-05-05T05:28:21.495Z,220.02
2023-05-05T05:29:21.057Z,221.05
2023-05-05T05:30:21.021Z,222.19
2023-05-05T05:31:21.094Z,222.55
2023-05-05T05:32:21.159Z,222.18
2023-05-05T05:33:21.136Z,221.72
2023-05-05T05:34:21.106Z,221.19
2023-05-05T05:35:21.285Z,222.36
2023-05-05T05:36:21.492Z,221.51
2023-05-05T05:37:21.306Z,221.03
2023-05-05T05:38:21.237Z,221.76
2023-05-05T05:39:21.229Z,222.65
2023-05-05T05:40:21.551Z,220.49
2023-05-05T05:41:22.055Z,218.13
2023-05-05T05:42:21.459Z,216.58
2023-05-05T05:43:21.349Z,213.97
2023-05-05T05:44:21.361Z,212.12
2023-05-05T05:45:21.432Z,212.23
2023-05-05T05:46:22.068Z,212.16
2023-05-05T05:47:21.584Z,211.02
2023-05-05T05:48:21.489Z,211.01
2023-05-05T05:49:21.572Z,209.44
2023-05-05T05:50:22.084Z,207.43
2023-05-05T05:51:22.042Z,208.22
2023-05-05T05:52:22.094Z,207.09
2023-05-05T05:53:22.404Z,203.90
2023-05-05T05:54:22.570Z,206.26
2023-05-05T05:55:21.817Z,205.85
2023-05-05T05:56:21.709Z,205.70
2023-05-05T05:57:22.032Z,206.74
2023-05-05T05:58:23.013Z,207.91
2023-05-05T05:59:22.246Z,207.42
2023-05-05T06:00:22.086Z,207.75
2023-05-05T06:01:21.850Z,207.40
2023-05-05T06:02:22.079Z,208.85
2023-05-05T06:03:22.100Z,210.03
2023-05-05T06:04:22.054Z,210.04
2023-05-05T06:05:21.878Z,208.59
2023-05-05T06:06:21.918Z,210.04
2023-05-05T06:07:21.928Z,209.05
2023-05-05T06:08:24.888Z,209.02
2023-05-05T06:09:21.946Z,209.65
2023-05-05T06:10:28.019Z,209.39
2023-05-05T06:11:22.944Z,209.49
2023-05-05T06:12:21.923Z,209.66
2023-05-05T06:13:21.993Z,209.70
2023-05-05T06:14:22.192Z,209.79
2023-05-05T06:15:21.952Z,209.34
2023-05-05T06:16:21.942Z,209.23
2023-05-05T06:17:22.478Z,207.12
2023-05-05T06:18:21.929Z,201.78
2023-05-05T06:19:21.887Z,200.06
2023-05-05T06:20:21.886Z,199.91
2023-05-05T06:21:22.005Z,200.36
2023-05-05T06:22:21.862Z,197.33
2023-05-05T06:23:21.822Z,194.01
2023-05-05T06:24:21.855Z,192.12
2023-05-05T06:25:21.848Z,195.44
2023-05-05T06:26:21.830Z,191.51
2023-05-05T06:27:21.799Z,184.52
2023-05-05T06:28:22.047Z,179.40
2023-05-05T06:29:21.867Z,177.64
2023-05-05T06:30:22.016Z,181.27
2023-05-05T06:31:21.999Z,180.05
2023-05-05T06:32:22.492Z,181.98
2023-05-05T06:33:21.922Z,181.08
2023-05-05T06:34:22.489Z,179.50
2023-05-05T06:35:21.991Z,178.89
2023-05-05T06:36:22.522Z,178.55
2023-05-05T06:37:22.003Z,179.36
2023-05-05T06:38:22.043Z,180.46
2023-05-05T06:39:22.064Z,178.31
2023-05-05T06:40:22.986Z,176.78
2023-05-05T06:41:22.986Z,175.63
2023-05-05T06:42:22.157Z,174.84
2023-05-05T06:43:22.273Z,172.11
2023-05-05T06:44:22.262Z,173.74
2023-05-05T06:45:22.523Z,173.46
2023-05-05T06:46:22.218Z,172.21
2023-05-05T06:47:22.299Z,176.53
2023-05-05T06:48:22.238Z,175.21
2023-05-05T06:49:22.300Z,176.51
2023-05-05T06:50:22.313Z,178.30
2023-05-05T06:51:23.027Z,177.44
2023-05-05T06:52:22.505Z,178.81
2023-05-05T06:53:23.054Z,178.89
2023-05-05T06:54:22.421Z,180.44
2023-05-05T06:55:22.677Z,182.60
2023-05-05T06:56:24.012Z,183.66
2023-05-05T06:57:22.492Z,182.05
2023-05-05T06:58:22.465Z,174.26
2023-05-05T06:59:23.097Z,172.87
2023-05-05T07:00:22.615Z,171.06
2023-05-05T07:01:22.573Z,169.82
2023-05-05T07:02:24.040Z,165.86
2023-05-05T07:03:22.684Z,161.40
2023-05-05T07:04:23.128Z,155.71
2023-05-05T07:05:22.633Z,155.76
2023-05-05T07:06:22.704Z,154.17
2023-05-05T07:07:22.746Z,159.22
2023-05-05T07:08:22.530Z,158.19
2023-05-05T07:09:22.553Z,160.29
2023-05-05T07:10:24.162Z,160.70
2023-05-05T07:11:22.549Z,158.81
2023-05-05T07:12:22.472Z,152.27
2023-05-05T07:13:24.045Z,147.28
2023-05-05T07:14:24.264Z,144.74
2023-05-05T07:15:28.590Z,141.88
2023-05-05T07:16:23.531Z,141.82
2023-05-05T07:17:22.530Z,138.25
2023-05-05T07:18:22.506Z,134.60
2023-05-05T07:19:22.514Z,134.72
2023-05-05T07:20:22.467Z,134.36
2023-05-05T07:21:23.045Z,132.16
2023-05-05T07:22:23.356Z,131.69
2023-05-05T07:23:22.455Z,129.21
2023-05-05T07:24:22.449Z,125.42
2023-05-05T07:25:22.447Z,122.35
2023-05-05T07:26:22.514Z,121.26
2023-05-05T07:27:22.512Z,119.45
2023-05-05T07:28:22.683Z,119.49
2023-05-05T07:29:22.485Z,113.93
2023-05-05T07:30:22.815Z,113.81
2023-05-05T07:31:22.526Z,111.57
2023-05-05T07:32:22.634Z,108.20
2023-05-05T07:33:22.534Z,107.43
2023-05-05T07:34:22.628Z,104.61
2023-05-05T07:35:23.149Z,104.99
2023-05-05T07:36:24.386Z,106.22
2023-05-05T07:37:22.674Z,103.46
2023-05-05T07:38:24.568Z,104.56
2023-05-05T07:39:23.188Z,101.70
2023-05-05T07:40:24.532Z,107.75
2023-05-05T07:41:22.792Z,110.09
2023-05-05T07:42:23.727Z,111.60
2023-05-05T07:43:22.876Z,110.37
2023-05-05T07:44:23.012Z,113.95
2023-05-05T07:45:23.541Z,117.22
2023-05-05T07:46:23.747Z,121.09
2023-05-05T07:47:23.048Z,121.45
2023-05-05T07:48:23.027Z,125.14
2023-05-05T07:49:23.121Z,119.89
2023-05-05T07:50:24.355Z,118.53
2023-05-05T07:51:23.124Z,115.46
2023-05-05T07:52:37.384Z,116.35
2023-05-05T07:53:24.184Z,109.65
2023-05-05T07:54:23.263Z,98.24
2023-05-05T07:55:23.120Z,93.07
2023-05-05T07:56:23.067Z,85.83
2023-05-05T07:57:23.083Z,77.89
2023-05-05T07:58:23.079Z,73.95
2023-05-05T07:59:23.098Z,69.85
2023-05-05T08:00:23.083Z,74.74
2023-05-05T08:01:23.037Z,78.37
2023-05-05T08:02:24.090Z,79.09
2023-05-05T08:03:23.115Z,78.62
2023-05-05T08:04:23.108Z,79.77
2023-05-05T08:05:23.025Z,77.36
2023-05-05T08:06:23.031Z,79.73
2023-05-05T08:07:23.044Z,85.63
2023-05-05T08:08:23.393Z,85.79
2023-05-05T08:09:23.100Z,77.38
2023-05-05T08:10:23.151Z,75.17
2023-05-05T08:11:27.797Z,77.41
2023-05-05T08:12:23.107Z,77.41
2023-05-05T08:13:23.097Z,74.26
2023-05-05T08:14:23.335Z,73.97
2023-05-05T08:15:23.119Z,77.63
2023-05-05T08:16:23.116Z,79.19
2023-05-05T08:17:23.117Z,78.92
2023-05-05T08:18:23.075Z,71.67
2023-05-05T08:19:29.411Z,76.37
2023-05-05T08:20:24.762Z,76.50
2023-05-05T08:21:23.062Z,77.34
2023-05-05T08:22:23.049Z,78.77
2023-05-05T08:23:23.061Z,79.02
2023-05-05T08:24:23.097Z,80.75
2023-05-05T08:25:23.049Z,81.90
2023-05-05T08:26:23.068Z,81.10
2023-05-05T08:27:22.984Z,73.46
2023-05-05T08:28:25.544Z,70.55
2023-05-05T08:29:24.054Z,68.17
2023-05-05T08:30:23.331Z,61.02
2023-05-05T08:31:23.267Z,55.96
2023-05-05T08:32:23.273Z,54.42
2023-05-05T08:33:23.254Z,44.94
2023-05-05T08:34:23.324Z,42.41
2023-05-05T08:35:23.551Z,43.65
2023-05-05T08:36:23.550Z,42.05
2023-05-05T08:37:23.556Z,38.11
2023-05-05T08:38:23.356Z,34.21
2023-05-05T08:39:23.358Z,34.25
2023-05-05T08:40:23.460Z,31.04
2023-05-05T08:41:23.447Z,38.26
2023-05-05T08:42:36.417Z,45.57
2023-05-05T08:43:24.436Z,41.26
2023-05-05T08:44:23.472Z,38.65
2023-05-05T08:45:23.402Z,45.69
2023-05-05T08:46:23.754Z,50.95
2023-05-05T08:47:23.440Z,51.09
2023-05-05T08:48:23.432Z,46.46
2023-05-05T08:49:23.594Z,51.66
2023-05-05T08:50:23.371Z,58.67
2023-05-05T08:51:23.384Z,60.31
2023-05-05T08:52:23.527Z,64.13
2023-05-05T08:53:23.419Z,68.03
2023-05-05T08:54:23.561Z,69.98
2023-05-05T08:55:23.328Z,70.49
2023-05-05T08:56:23.315Z,67.28
2023-05-05T08:57:23.331Z,63.37
2023-05-05T08:58:23.320Z,72.46
2023-05-05T08:59:23.344Z,70.27
2023-05-05T09:00:23.400Z,68.91
2023-05-05T09:01:23.387Z,72.46
2023-05-05T09:02:23.552Z,78.31
2023-05-05T09:03:24.203Z,80.22
2023-05-05T09:04:23.587Z,81.68
2023-05-05T09:05:23.428Z,79.72
2023-05-05T09:06:23.498Z,82.69
2023-05-05T09:07:23.488Z,76.42
2023-05-05T09:08:23.548Z,68.63
2023-05-05T09:09:26.038Z,75.54
2023-05-05T09:10:23.677Z,77.74
2023-05-05T09:11:23.672Z,82.86
2023-05-05T09:12:24.094Z,87.99
2023-05-05T09:13:23.709Z,90.64
2023-05-05T09:14:23.705Z,90.33
2023-05-05T09:15:23.772Z,95.67
2023-05-05T09:16:23.808Z,96.71
2023-05-05T09:17:23.792Z,98.48
2023-05-05T09:18:24.194Z,97.48
2023-05-05T09:19:24.092Z,95.37
2023-05-05T09:20:23.889Z,95.08
2023-05-05T09:21:24.042Z,98.08
2023-05-05T09:22:23.954Z,99.58
2023-05-05T09:23:24.069Z,100.20
2023-05-05T09:24:24.000Z,96.50
2023-05-05T09:25:24.023Z,99.81
2023-05-05T09:26:24.037Z,97.57
2023-05-05T09:27:24.631Z,95.88
2023-05-05T09:28:24.133Z,94.83
2023-05-05T09:29:24.118Z,95.27
2023-05-05T09:30:24.251Z,94.32
2023-05-05T09:31:24.197Z,91.92
2023-05-05T09:32:24.205Z,89.39
2023-05-05T09:33:24.240Z,85.52
2023-05-05T09:34:24.299Z,90.82
2023-05-05T09:35:25.075Z,84.81
2023-05-05T09:36:24.572Z,77.05
2023-05-05T09:37:25.097Z,66.59
2023-05-05T09:38:24.607Z,69.51
2023-05-05T09:39:24.439Z,73.88
2023-05-05T09:40:24.394Z,71.80
2023-05-05T09:41:24.445Z,79.79
2023-05-05T09:42:24.454Z,87.22
2023-05-05T09:43:24.590Z,84.99
2023-05-05T09:44:24.629Z,84.80
2023-05-05T09:45:24.533Z,83.83
2023-05-05T09:46:24.708Z,84.46
2023-05-05T09:47:29.981Z,86.65
2023-05-05T09:48:25.629Z,86.70
2023-05-05T09:49:24.604Z,86.85
2023-05-05T09:50:24.727Z,87.72
2023-05-05T09:51:24.578Z,89.60
2023-05-05T09:52:24.788Z,90.09
2023-05-05T09:53:25.117Z,88.14
2023-05-05T09:54:27.094Z,88.28
2023-05-05T09:55:24.707Z,90.47
2023-05-05T09:56:24.694Z,103.56
2023-05-05T09:57:24.857Z,101.43
2023-05-05T09:58:24.848Z,102.57
2023-05-05T09:59:24.882Z,101.49
2023-05-05T10:00:24.838Z,104.85
2023-05-05T10:01:24.851Z,99.25
2023-05-05T10:02:24.879Z,105.18
2023-05-05T10:03:24.908Z,107.10
2023-05-05T10:04:24.937Z,97.22
2023-05-05T10:05:25.745Z,91.67
2023-05-05T10:06:24.977Z,88.47
2023-05-05T10:07:24.986Z,71.12
2023-05-05T10:08:24.998Z,54.57
2023-05-05T10:09:25.096Z,59.43
2023-05-05T10:10:26.060Z,58.33
2023-05-05T10:11:25.075Z,56.44
2023-05-05T10:12:25.070Z,53.88
2023-05-05T10:13:25.144Z,59.11
2023-05-05T10:14:25.150Z,54.03
2023-05-05T10:15:26.079Z,56.39
2023-05-05T10:16:27.334Z,59.27
2023-05-05T10:17:25.328Z,57.26
2023-05-05T10:18:25.286Z,58.78
2023-05-05T10:19:25.280Z,60.24
2023-05-05T10:20:25.285Z,61.21
2023-05-05T10:21:25.406Z,60.70
2023-05-05T10:22:25.325Z,54.75
2023-05-05T10:23:25.352Z,45.10
2023-05-05T10:24:25.350Z,39.93
2023-05-05T10:25:25.359Z,41.99
2023-05-05T10:26:25.526Z,42.84
2023-05-05T10:27:25.553Z,40.78
2023-05-05T10:28:25.437Z,37.74
2023-05-05T10:29:25.457Z,40.29
2023-05-05T10:30:25.504Z,40.62
2023-05-05T10:31:26.811Z,45.78
2023-05-05T10:32:51.514Z,48.48
2023-05-05T10:33:32.210Z,48.63
2023-05-05T10:34:26.701Z,48.76
2023-05-05T10:35:25.606Z,50.44
2023-05-05T10:36:25.631Z,53.79
2023-05-05T10:37:25.618Z,56.98
2023-05-05T10:38:26.796Z,58.26
2023-05-05T10:39:25.624Z,64.70
2023-05-05T10:40:25.530Z,67.34
2023-05-05T10:41:25.684Z,73.66
2023-05-05T10:42:25.590Z,72.17
2023-05-05T10:43:25.542Z,72.34
2023-05-05T10:44:26.208Z,70.25
2023-05-05T10:45:25.623Z,67.15
2023-05-05T10:46:25.674Z,61.92
2023-05-05T10:47:25.556Z,52.59
2023-05-05T10:48:25.515Z,40.95
2023-05-05T10:49:26.091Z,37.08
2023-05-05T10:50:26.104Z,43.37
2023-05-05T10:51:38.622Z,51.46
2023-05-05T10:52:26.482Z,51.48
2023-05-05T10:53:25.463Z,52.38
2023-05-05T10:54:25.599Z,49.82
2023-05-05T10:55:25.631Z,40.24
2023-05-05T10:56:25.489Z,36.93
2023-05-05T10:57:25.431Z,41.65
2023-05-05T10:58:25.480Z,41.53
2023-05-05T10:59:25.391Z,38.14
2023-05-05T11:00:25.496Z,35.73
2023-05-05T11:01:25.537Z,40.59
2023-05-05T11:02:25.708Z,41.42
2023-05-05T11:03:25.502Z,43.10
2023-05-05T11:04:25.322Z,41.26
2023-05-05T11:05:25.322Z,31.97
2023-05-05T11:06:25.352Z,25.25
2023-05-05T11:07:25.334Z,27.74
2023-05-05T11:08:25.566Z,27.46
2023-05-05T11:09:25.440Z,25.00
2023-05-05T11:10:25.489Z,28.37
2023-05-05T11:11:25.433Z,25.21
2023-05-05T11:12:25.582Z,25.10
2023-05-05T11:13:25.524Z,25.00
2023-05-05T11:14:25.662Z,25.07
2023-05-05T11:15:25.572Z,26.62
2023-05-05T11:16:25.616Z,28.98
2023-05-05T11:17:25.830Z,31.12
2023-05-05T11:18:25.689Z,29.12
2023-05-05T11:19:26.573Z,25.00
2023-05-05T11:20:25.654Z,25.00
2023-05-05T11:21:26.738Z,29.34
2023-05-05T11:22:25.740Z,25.00
2023-05-05T11:23:25.801Z,26.30
2023-05-05T11:24:25.784Z,27.07
2023-05-05T11:25:26.788Z,25.00
2023-05-05T11:26:26.174Z,26.94
2023-05-05T11:27:25.873Z,25.26
2023-05-05T11:28:25.882Z,25.93
2023-05-05T11:29:25.933Z,29.47
2023-05-05T11:30:25.997Z,25.61
2023-05-05T11:31:26.174Z,25.00
2023-05-05T11:32:26.256Z,25.44
2023-05-05T11:33:26.120Z,25.00
2023-05-05T11:34:26.688Z,28.36
2023-05-05T11:35:26.154Z,25.00
2023-05-05T11:36:26.190Z,25.00
2023-05-05T11:37:26.260Z,24.93
2023-05-05T11:38:26.253Z,25.78
2023-05-05T11:39:26.377Z,29.33
2023-05-05T11:40:26.344Z,30.22
2023-05-05T11:41:26.432Z,29.68
2023-05-05T11:42:26.518Z,28.74
2023-05-05T11:43:26.432Z,30.60
2023-05-05T11:44:26.481Z,39.67
2023-05-05T11:45:26.515Z,37.49
2023-05-05T11:46:26.731Z,39.21
2023-05-05T11:47:26.636Z,35.29
2023-05-05T11:48:26.658Z,36.46
2023-05-05T11:49:26.762Z,32.72
2023-05-05T11:50:26.735Z,28.06
2023-05-05T11:51:26.749Z,32.85
2023-05-05T11:52:26.866Z,37.62
2023-05-05T11:53:27.637Z,33.64
2023-05-05T11:54:26.873Z,30.84
2023-05-05T11:55:27.014Z,32.03
2023-05-05T11:56:27.181Z,29.64
2023-05-05T11:57:27.189Z,30.94
2023-05-05T11:58:27.139Z,30.08
2023-05-05T11:59:27.098Z,25.12
2023-05-05T12:00:27.113Z,23.47
2023-05-05T12:01:27.120Z,24.97
2023-05-05T12:02:27.244Z,25.18
2023-05-05T12:03:27.624Z,24.68
2023-05-05T12:04:27.253Z,37.19
2023-05-05T12:05:27.287Z,35.20
2023-05-05T12:06:27.364Z,35.34
2023-05-05T12:07:27.374Z,31.05
2023-05-05T12:08:27.366Z,28.07
2023-05-05T12:09:27.444Z,27.51
2023-05-05T12:10:27.453Z,34.25
2023-05-05T12:11:27.529Z,33.31
2023-05-05T12:12:27.568Z,32.86
2023-05-05T12:13:27.671Z,35.64
2023-05-05T12:14:27.676Z,38.44
2023-05-05T12:15:27.653Z,39.40
2023-05-05T12:16:27.669Z,42.49
2023-05-05T12:17:27.700Z,44.85
2023-05-05T12:18:27.742Z,49.39
2023-05-05T12:19:27.769Z,47.80
2023-05-05T12:20:27.768Z,47.26
2023-05-05T12:21:27.829Z,45.75
2023-05-05T12:22:27.949Z,46.52
2023-05-05T12:23:27.890Z,42.71
2023-05-05T12:24:27.949Z,45.81
2023-05-05T12:25:28.000Z,50.69
2023-05-05T12:26:28.093Z,51.24
2023-05-05T12:27:28.073Z,51.94
2023-05-05T12:28:28.140Z,53.69
2023-05-05T12:29:28.196Z,52.02
2023-05-05T12:30:28.328Z,54.72
2023-05-05T12:31:28.286Z,53.39
2023-05-05T12:32:28.327Z,53.63
2023-05-05T12:33:28.300Z,55.12
2023-05-05T12:34:28.319Z,54.73
2023-05-05T12:35:28.381Z,57.83
2023-05-05T12:36:29.861Z,58.32
2023-05-05T12:37:28.494Z,58.89